sensor_id;sensor_type;location;lat;lon;timestamp;temperature;humidity
22006;DHT22;11167;46.988;15.470;2023-08-20T00:00:54;26.00;79.00
22006;DHT22;11167;46.988;15.470;2023-08-20T00:03:08;25.90;78.90
22006;DHT22;11167;46.988;15.470;2023-08-20T00:05:07;25.90;78.90
22006;DHT22;11167;46.988;15.470;2023-08-20T00:07:08;25.90;79.80
22006;DHT22;11167;46.988;15.470;2023-08-20T00:09:09;25.80;78.90
22006;DHT22;11167;46.988;15.470;2023-08-20T00:11:11;25.80;78.90
22006;DHT22;11167;46.988;15.470;2023-08-20T00:13:12;25.80;78.90
22006;DHT22;11167;46.988;15.470;2023-08-20T00:15:14;25.80;78.90
22006;DHT22;11167;46.988;15.470;2023-08-20T00:17:15;25.80;78.90
22006;DHT22;11167;46.988;15.470;2023-08-20T00:19:16;25.80;79.00
22006;DHT22;11167;46.988;15.470;2023-08-20T00:21:17;25.80;78.90
22006;DHT22;11167;46.988;15.470;2023-08-20T00:23:18;25.80;79.00
22006;DHT22;11167;46.988;15.470;2023-08-20T00:25:19;25.70;78.90
22006;DHT22;11167;46.988;15.470;2023-08-20T00:27:20;25.70;78.90
22006;DHT22;11167;46.988;15.470;2023-08-20T00:29:21;25.70;78.90
22006;DHT22;11167;46.988;15.470;2023-08-20T00:31:22;25.70;79.00
22006;DHT22;11167;46.988;15.470;2023-08-20T00:33:22;25.70;78.90
22006;DHT22;11167;46.988;15.470;2023-08-20T00:35:23;25.60;78.90
22006;DHT22;11167;46.988;15.470;2023-08-20T00:37:24;25.60;78.90
22006;DHT22;11167;46.988;15.470;2023-08-20T00:39:26;25.60;79.70
22006;DHT22;11167;46.988;15.470;2023-08-20T00:41:27;25.60;79.00
22006;DHT22;11167;46.988;15.470;2023-08-20T00:43:28;25.50;78.80
22006;DHT22;11167;46.988;15.470;2023-08-20T00:45:29;25.60;79.00
22006;DHT22;11167;46.988;15.470;2023-08-20T00:47:31;25.50;78.90
22006;DHT22;11167;46.988;15.470;2023-08-20T00:49:31;25.50;79.00
22006;DHT22;11167;46.988;15.470;2023-08-20T00:51:33;25.50;78.90
22006;DHT22;11167;46.988;15.470;2023-08-20T00:53:34;25.50;79.00
22006;DHT22;11167;46.988;15.470;2023-08-20T00:55:35;25.50;78.90
22006;DHT22;11167;46.988;15.470;2023-08-20T00:57:36;25.50;79.00
22006;DHT22;11167;46.988;15.470;2023-08-20T00:59:38;25.40;78.90
22006;DHT22;11167;46.988;15.470;2023-08-20T01:01:39;25.40;78.90
22006;DHT22;11167;46.988;15.470;2023-08-20T01:03:40;25.40;78.90
22006;DHT22;11167;46.988;15.470;2023-08-20T01:05:43;25.40;78.90
22006;DHT22;11167;46.988;15.470;2023-08-20T01:07:47;25.40;78.90
22006;DHT22;11167;46.988;15.470;2023-08-20T01:09:50;25.30;78.90
22006;DHT22;11167;46.988;15.470;2023-08-20T01:11:54;25.20;78.80
22006;DHT22;11167;46.988;15.470;2023-08-20T01:13:55;25.30;78.90
22006;DHT22;11167;46.988;15.470;2023-08-20T01:15:56;25.30;78.90
22006;DHT22;11167;46.988;15.470;2023-08-20T01:18:00;25.30;78.90
22006;DHT22;11167;46.988;15.470;2023-08-20T01:20:01;25.20;78.80
22006;DHT22;11167;46.988;15.470;2023-08-20T01:24:17;25.20;78.90
22006;DHT22;11167;46.988;15.470;2023-08-20T01:26:25;25.20;78.80
22006;DHT22;11167;46.988;15.470;2023-08-20T01:28:25;25.20;78.80
22006;DHT22;11167;46.988;15.470;2023-08-20T01:30:26;25.20;78.90
22006;DHT22;11167;46.988;15.470;2023-08-20T01:32:27;25.10;79.00
22006;DHT22;11167;46.988;15.470;2023-08-20T01:34:28;25.10;78.90
22006;DHT22;11167;46.988;15.470;2023-08-20T01:36:29;25.10;78.90
22006;DHT22;11167;46.988;15.470;2023-08-20T01:38:30;25.10;78.90
22006;DHT22;11167;46.988;15.470;2023-08-20T01:40:31;25.00;78.90
22006;DHT22;11167;46.988;15.470;2023-08-20T01:42:32;25.00;78.90
22006;DHT22;11167;46.988;15.470;2023-08-20T01:44:33;25.00;78.90
22006;DHT22;11167;46.988;15.470;2023-08-20T01:46:34;25.00;78.90
22006;DHT22;11167;46.988;15.470;2023-08-20T01:48:35;25.00;78.90
22006;DHT22;11167;46.988;15.470;2023-08-20T01:50:38;25.00;79.00
22006;DHT22;11167;46.988;15.470;2023-08-20T01:52:39;25.00;78.90
22006;DHT22;11167;46.988;15.470;2023-08-20T01:54:39;25.00;79.00
22006;DHT22;11167;46.988;15.470;2023-08-20T01:56:41;24.90;79.00
22006;DHT22;11167;46.988;15.470;2023-08-20T01:58:42;24.90;79.00
22006;DHT22;11167;46.988;15.470;2023-08-20T02:00:44;24.90;79.00
22006;DHT22;11167;46.988;15.470;2023-08-20T02:02:45;24.90;79.00
22006;DHT22;11167;46.988;15.470;2023-08-20T02:04:46;24.90;79.10
22006;DHT22;11167;46.988;15.470;2023-08-20T02:06:47;24.80;79.00
22006;DHT22;11167;46.988;15.470;2023-08-20T02:08:48;24.80;79.00
22006;DHT22;11167;46.988;15.470;2023-08-20T02:10:49;24.80;79.00
22006;DHT22;11167;46.988;15.470;2023-08-20T02:12:50;24.80;79.00
22006;DHT22;11167;46.988;15.470;2023-08-20T02:14:51;24.80;79.10
22006;DHT22;11167;46.988;15.470;2023-08-20T02:16:52;24.80;79.10
22006;DHT22;11167;46.988;15.470;2023-08-20T02:18:53;24.80;79.10
22006;DHT22;11167;46.988;15.470;2023-08-20T02:20:54;24.70;79.10
22006;DHT22;11167;46.988;15.470;2023-08-20T02:22:55;24.70;79.10
22006;DHT22;11167;46.988;15.470;2023-08-20T02:24:56;24.70;79.10
22006;DHT22;11167;46.988;15.470;2023-08-20T02:26:57;24.70;79.10
22006;DHT22;11167;46.988;15.470;2023-08-20T02:28:58;24.60;79.10
22006;DHT22;11167;46.988;15.470;2023-08-20T02:31:03;24.60;79.10
22006;DHT22;11167;46.988;15.470;2023-08-20T02:33:04;24.60;79.10
22006;DHT22;11167;46.988;15.470;2023-08-20T02:35:05;24.60;79.10
22006;DHT22;11167;46.988;15.470;2023-08-20T02:37:06;24.60;79.10
22006;DHT22;11167;46.988;15.470;2023-08-20T02:39:08;24.60;79.10
22006;DHT22;11167;46.988;15.470;2023-08-20T02:41:09;24.60;79.20
22006;DHT22;11167;46.988;15.470;2023-08-20T02:43:10;24.60;79.20
22006;DHT22;11167;46.988;15.470;2023-08-20T02:45:11;24.50;79.20
22006;DHT22;11167;46.988;15.470;2023-08-20T02:47:12;24.50;79.20
22006;DHT22;11167;46.988;15.470;2023-08-20T02:49:13;24.50;79.20
22006;DHT22;11167;46.988;15.470;2023-08-20T02:51:15;24.50;79.20
22006;DHT22;11167;46.988;15.470;2023-08-20T02:53:16;24.40;79.20
22006;DHT22;11167;46.988;15.470;2023-08-20T02:55:17;24.40;79.10
22006;DHT22;11167;46.988;15.470;2023-08-20T02:57:17;24.40;79.20
22006;DHT22;11167;46.988;15.470;2023-08-20T02:59:18;24.40;79.20
22006;DHT22;11167;46.988;15.470;2023-08-20T03:01:23;24.40;79.20
22006;DHT22;11167;46.988;15.470;2023-08-20T03:03:24;24.40;79.30
22006;DHT22;11167;46.988;15.470;2023-08-20T03:05:25;24.30;79.20
22006;DHT22;11167;46.988;15.470;2023-08-20T03:07:26;24.30;79.30
22006;DHT22;11167;46.988;15.470;2023-08-20T03:09:27;24.30;79.30
22006;DHT22;11167;46.988;15.470;2023-08-20T03:11:28;24.20;79.30
22006;DHT22;11167;46.988;15.470;2023-08-20T03:13:29;24.30;79.30
22006;DHT22;11167;46.988;15.470;2023-08-20T03:15:30;24.30;79.30
22006;DHT22;11167;46.988;15.470;2023-08-20T03:17:31;24.30;79.30
22006;DHT22;11167;46.988;15.470;2023-08-20T03:19:33;24.30;79.40
22006;DHT22;11167;46.988;15.470;2023-08-20T03:21:34;24.20;79.30
22006;DHT22;11167;46.988;15.470;2023-08-20T03:23:36;24.20;79.30
22006;DHT22;11167;46.988;15.470;2023-08-20T03:25:39;24.20;79.30
22006;DHT22;11167;46.988;15.470;2023-08-20T03:27:41;24.20;79.40
22006;DHT22;11167;46.988;15.470;2023-08-20T03:29:42;24.20;79.40
22006;DHT22;11167;46.988;15.470;2023-08-20T03:31:43;24.20;79.50
22006;DHT22;11167;46.988;15.470;2023-08-20T03:33:44;24.10;79.40
22006;DHT22;11167;46.988;15.470;2023-08-20T03:35:45;24.10;79.40
22006;DHT22;11167;46.988;15.470;2023-08-20T03:37:49;24.10;79.40
22006;DHT22;11167;46.988;15.470;2023-08-20T03:39:50;24.10;79.50
22006;DHT22;11167;46.988;15.470;2023-08-20T03:41:52;24.10;79.60
22006;DHT22;11167;46.988;15.470;2023-08-20T03:43:53;24.00;79.50
22006;DHT22;11167;46.988;15.470;2023-08-20T03:45:54;24.00;79.60
22006;DHT22;11167;46.988;15.470;2023-08-20T03:47:55;24.00;79.60
22006;DHT22;11167;46.988;15.470;2023-08-20T03:49:56;24.00;79.60
22006;DHT22;11167;46.988;15.470;2023-08-20T03:51:57;24.00;79.60
22006;DHT22;11167;46.988;15.470;2023-08-20T03:53:58;24.00;79.70
22006;DHT22;11167;46.988;15.470;2023-08-20T03:55:59;24.00;79.60
22006;DHT22;11167;46.988;15.470;2023-08-20T03:58:00;23.90;79.60
22006;DHT22;11167;46.988;15.470;2023-08-20T04:00:02;23.90;79.60
22006;DHT22;11167;46.988;15.470;2023-08-20T04:02:04;23.90;79.60
22006;DHT22;11167;46.988;15.470;2023-08-20T04:04:05;23.90;79.70
22006;DHT22;11167;46.988;15.470;2023-08-20T04:06:06;23.90;79.70
22006;DHT22;11167;46.988;15.470;2023-08-20T04:08:07;23.90;79.70
22006;DHT22;11167;46.988;15.470;2023-08-20T04:10:08;23.80;79.70
22006;DHT22;11167;46.988;15.470;2023-08-20T04:12:10;23.80;79.70
22006;DHT22;11167;46.988;15.470;2023-08-20T04:14:11;23.80;79.70
22006;DHT22;11167;46.988;15.470;2023-08-20T04:16:13;23.80;79.80
22006;DHT22;11167;46.988;15.470;2023-08-20T04:18:14;23.80;79.80
22006;DHT22;11167;46.988;15.470;2023-08-20T04:20:15;23.70;79.70
22006;DHT22;11167;46.988;15.470;2023-08-20T04:22:16;23.80;79.80
22006;DHT22;11167;46.988;15.470;2023-08-20T04:24:17;23.70;79.80
22006;DHT22;11167;46.988;15.470;2023-08-20T04:26:18;23.70;79.80
22006;DHT22;11167;46.988;15.470;2023-08-20T04:28:19;23.70;79.80
22006;DHT22;11167;46.988;15.470;2023-08-20T04:30:20;23.70;79.80
22006;DHT22;11167;46.988;15.470;2023-08-20T04:32:21;23.70;79.80
22006;DHT22;11167;46.988;15.470;2023-08-20T04:34:22;23.70;79.90
22006;DHT22;11167;46.988;15.470;2023-08-20T04:36:23;23.70;79.90
22006;DHT22;11167;46.988;15.470;2023-08-20T04:38:24;23.60;79.80
22006;DHT22;11167;46.988;15.470;2023-08-20T04:40:25;23.60;79.80
22006;DHT22;11167;46.988;15.470;2023-08-20T04:42:26;23.60;79.80
22006;DHT22;11167;46.988;15.470;2023-08-20T04:44:29;23.60;79.90
22006;DHT22;11167;46.988;15.470;2023-08-20T04:46:30;23.60;79.90
22006;DHT22;11167;46.988;15.470;2023-08-20T04:48:31;23.50;79.80
22006;DHT22;11167;46.988;15.470;2023-08-20T04:50:31;23.60;80.00
22006;DHT22;11167;46.988;15.470;2023-08-20T04:52:33;23.50;79.90
22006;DHT22;11167;46.988;15.470;2023-08-20T04:54:34;23.50;79.90
22006;DHT22;11167;46.988;15.470;2023-08-20T04:56:35;23.50;80.70
22006;DHT22;11167;46.988;15.470;2023-08-20T04:58:35;23.50;80.00
22006;DHT22;11167;46.988;15.470;2023-08-20T05:00:36;23.50;80.00
22006;DHT22;11167;46.988;15.470;2023-08-20T05:02:37;23.40;80.00
22006;DHT22;11167;46.988;15.470;2023-08-20T05:04:38;23.50;80.00
22006;DHT22;11167;46.988;15.470;2023-08-20T05:06:40;23.40;80.00
22006;DHT22;11167;46.988;15.470;2023-08-20T05:08:44;23.40;80.00
22006;DHT22;11167;46.988;15.470;2023-08-20T05:10:45;23.50;80.10
22006;DHT22;11167;46.988;15.470;2023-08-20T05:12:46;23.40;80.10
22006;DHT22;11167;46.988;15.470;2023-08-20T05:14:47;23.40;80.10
22006;DHT22;11167;46.988;15.470;2023-08-20T05:16:48;23.40;80.10
22006;DHT22;11167;46.988;15.470;2023-08-20T05:18:49;23.40;80.20
22006;DHT22;11167;46.988;15.470;2023-08-20T05:20:50;23.30;80.10
22006;DHT22;11167;46.988;15.470;2023-08-20T05:22:50;23.30;80.10
22006;DHT22;11167;46.988;15.470;2023-08-20T05:24:51;23.30;80.10
22006;DHT22;11167;46.988;15.470;2023-08-20T05:29:07;23.30;80.10
22006;DHT22;11167;46.988;15.470;2023-08-20T05:31:08;23.30;80.10
22006;DHT22;11167;46.988;15.470;2023-08-20T05:33:12;23.30;80.10
22006;DHT22;11167;46.988;15.470;2023-08-20T05:35:17;23.20;80.20
22006;DHT22;11167;46.988;15.470;2023-08-20T05:37:16;23.20;80.10
22006;DHT22;11167;46.988;15.470;2023-08-20T05:39:17;23.20;80.20
22006;DHT22;11167;46.988;15.470;2023-08-20T05:41:17;23.20;80.10
22006;DHT22;11167;46.988;15.470;2023-08-20T05:43:19;23.20;80.10
22006;DHT22;11167;46.988;15.470;2023-08-20T05:45:20;23.20;80.10
22006;DHT22;11167;46.988;15.470;2023-08-20T05:47:20;23.20;80.10
22006;DHT22;11167;46.988;15.470;2023-08-20T05:49:21;23.20;80.10
22006;DHT22;11167;46.988;15.470;2023-08-20T05:51:22;23.20;80.10
22006;DHT22;11167;46.988;15.470;2023-08-20T05:53:23;23.10;80.00
22006;DHT22;11167;46.988;15.470;2023-08-20T05:55:24;23.10;80.00
22006;DHT22;11167;46.988;15.470;2023-08-20T05:57:25;23.10;80.00
22006;DHT22;11167;46.988;15.470;2023-08-20T05:59:26;23.10;80.80
22006;DHT22;11167;46.988;15.470;2023-08-20T06:01:27;23.10;80.00
22006;DHT22;11167;46.988;15.470;2023-08-20T06:03:27;23.10;80.00
22006;DHT22;11167;46.988;15.470;2023-08-20T06:05:30;23.10;80.00
22006;DHT22;11167;46.988;15.470;2023-08-20T06:07:31;23.10;80.00
22006;DHT22;11167;46.988;15.470;2023-08-20T06:09:32;23.10;80.00
22006;DHT22;11167;46.988;15.470;2023-08-20T06:11:33;23.10;80.00
22006;DHT22;11167;46.988;15.470;2023-08-20T06:13:33;23.00;80.00
22006;DHT22;11167;46.988;15.470;2023-08-20T06:15:34;23.00;80.00
22006;DHT22;11167;46.988;15.470;2023-08-20T06:17:35;23.10;80.00
22006;DHT22;11167;46.988;15.470;2023-08-20T06:19:36;23.00;80.00
22006;DHT22;11167;46.988;15.470;2023-08-20T06:21:37;23.00;79.90
22006;DHT22;11167;46.988;15.470;2023-08-20T06:23:38;23.00;79.90
22006;DHT22;11167;46.988;15.470;2023-08-20T06:25:38;23.00;79.90
22006;DHT22;11167;46.988;15.470;2023-08-20T06:27:41;23.00;79.90
22006;DHT22;11167;46.988;15.470;2023-08-20T06:29:42;22.90;79.90
22006;DHT22;11167;46.988;15.470;2023-08-20T06:31:43;23.00;79.90
22006;DHT22;11167;46.988;15.470;2023-08-20T06:33:44;22.90;79.80
22006;DHT22;11167;46.988;15.470;2023-08-20T06:35:45;23.00;79.80
22006;DHT22;11167;46.988;15.470;2023-08-20T06:37:46;22.90;79.80
22006;DHT22;11167;46.988;15.470;2023-08-20T06:39:47;23.00;79.90
22006;DHT22;11167;46.988;15.470;2023-08-20T06:41:47;23.00;79.80
22006;DHT22;11167;46.988;15.470;2023-08-20T06:43:49;23.00;79.80
22006;DHT22;11167;46.988;15.470;2023-08-20T06:45:50;23.00;79.80
22006;DHT22;11167;46.988;15.470;2023-08-20T06:47:51;22.90;79.70
22006;DHT22;11167;46.988;15.470;2023-08-20T06:49:52;23.00;79.80
22006;DHT22;11167;46.988;15.470;2023-08-20T06:51:52;23.00;79.80
22006;DHT22;11167;46.988;15.470;2023-08-20T06:53:53;22.90;79.70
22006;DHT22;11167;46.988;15.470;2023-08-20T06:55:55;22.90;79.70
22006;DHT22;11167;46.988;15.470;2023-08-20T06:57:56;22.90;80.00
22006;DHT22;11167;46.988;15.470;2023-08-20T06:59:57;22.90;80.20
22006;DHT22;11167;46.988;15.470;2023-08-20T07:01:58;22.90;80.20
22006;DHT22;11167;46.988;15.470;2023-08-20T07:03:59;22.90;80.20
22006;DHT22;11167;46.988;15.470;2023-08-20T07:06:00;22.90;80.20
22006;DHT22;11167;46.988;15.470;2023-08-20T07:08:01;22.90;80.40
22006;DHT22;11167;46.988;15.470;2023-08-20T07:10:01;22.90;80.40
22006;DHT22;11167;46.988;15.470;2023-08-20T07:12:04;22.90;80.30
22006;DHT22;11167;46.988;15.470;2023-08-20T07:14:05;22.90;80.50
22006;DHT22;11167;46.988;15.470;2023-08-20T07:16:06;22.90;80.40
22006;DHT22;11167;46.988;15.470;2023-08-20T07:18:06;22.90;80.40
22006;DHT22;11167;46.988;15.470;2023-08-20T07:20:07;22.90;80.40
22006;DHT22;11167;46.988;15.470;2023-08-20T07:22:08;22.90;80.40
22006;DHT22;11167;46.988;15.470;2023-08-20T07:24:09;22.90;80.40
22006;DHT22;11167;46.988;15.470;2023-08-20T07:26:10;23.00;80.60
22006;DHT22;11167;46.988;15.470;2023-08-20T07:28:12;22.90;80.60
22006;DHT22;11167;46.988;15.470;2023-08-20T07:30:14;23.00;81.00
22006;DHT22;11167;46.988;15.470;2023-08-20T07:32:14;22.90;80.70
22006;DHT22;11167;46.988;15.470;2023-08-20T07:34:15;23.00;80.80
22006;DHT22;11167;46.988;15.470;2023-08-20T07:36:16;22.90;80.80
22006;DHT22;11167;46.988;15.470;2023-08-20T07:38:18;23.00;81.00
22006;DHT22;11167;46.988;15.470;2023-08-20T07:40:19;23.00;81.00
22006;DHT22;11167;46.988;15.470;2023-08-20T07:42:20;23.00;81.10
22006;DHT22;11167;46.988;15.470;2023-08-20T07:44:21;23.00;81.10
22006;DHT22;11167;46.988;15.470;2023-08-20T07:46:22;23.00;81.20
22006;DHT22;11167;46.988;15.470;2023-08-20T07:48:23;23.00;81.20
22006;DHT22;11167;46.988;15.470;2023-08-20T07:50:23;23.00;81.20
22006;DHT22;11167;46.988;15.470;2023-08-20T07:52:24;23.10;81.30
22006;DHT22;11167;46.988;15.470;2023-08-20T07:54:25;23.10;81.40
22006;DHT22;11167;46.988;15.470;2023-08-20T07:56:27;23.10;81.40
22006;DHT22;11167;46.988;15.470;2023-08-20T07:58:28;23.00;81.50
22006;DHT22;11167;46.988;15.470;2023-08-20T08:00:30;23.10;81.50
22006;DHT22;11167;46.988;15.470;2023-08-20T08:02:31;23.10;81.50
22006;DHT22;11167;46.988;15.470;2023-08-20T08:04:33;23.10;81.60
22006;DHT22;11167;46.988;15.470;2023-08-20T08:06:34;23.10;81.60
22006;DHT22;11167;46.988;15.470;2023-08-20T08:08:35;23.10;81.70
22006;DHT22;11167;46.988;15.470;2023-08-20T08:10:36;23.10;81.70
22006;DHT22;11167;46.988;15.470;2023-08-20T08:12:37;23.10;81.80
22006;DHT22;11167;46.988;15.470;2023-08-20T08:14:39;23.10;81.90
22006;DHT22;11167;46.988;15.470;2023-08-20T08:16:39;23.10;81.90
22006;DHT22;11167;46.988;15.470;2023-08-20T08:18:40;23.20;82.10
22006;DHT22;11167;46.988;15.470;2023-08-20T08:20:42;23.20;82.10
22006;DHT22;11167;46.988;15.470;2023-08-20T08:22:43;23.20;82.10
22006;DHT22;11167;46.988;15.470;2023-08-20T08:24:43;23.20;82.20
22006;DHT22;11167;46.988;15.470;2023-08-20T08:26:44;23.20;82.30
22006;DHT22;11167;46.988;15.470;2023-08-20T08:28:45;23.20;82.30
22006;DHT22;11167;46.988;15.470;2023-08-20T08:30:46;23.30;82.40
22006;DHT22;11167;46.988;15.470;2023-08-20T08:32:47;23.30;82.40
22006;DHT22;11167;46.988;15.470;2023-08-20T08:34:48;23.30;82.40
22006;DHT22;11167;46.988;15.470;2023-08-20T08:36:49;23.30;82.40
22006;DHT22;11167;46.988;15.470;2023-08-20T08:38:49;23.30;82.50
22006;DHT22;11167;46.988;15.470;2023-08-20T08:40:50;23.30;82.60
22006;DHT22;11167;46.988;15.470;2023-08-20T08:42:52;23.40;82.80
22006;DHT22;11167;46.988;15.470;2023-08-20T08:44:53;23.40;82.80
22006;DHT22;11167;46.988;15.470;2023-08-20T08:46:55;23.40;82.80
22006;DHT22;11167;46.988;15.470;2023-08-20T08:48:56;23.40;82.90
22006;DHT22;11167;46.988;15.470;2023-08-20T08:50:57;23.40;82.80
22006;DHT22;11167;46.988;15.470;2023-08-20T08:52:58;23.40;82.90
22006;DHT22;11167;46.988;15.470;2023-08-20T08:54:59;23.50;83.00
22006;DHT22;11167;46.988;15.470;2023-08-20T08:57:00;23.50;83.00
22006;DHT22;11167;46.988;15.470;2023-08-20T08:59:01;23.50;83.00
22006;DHT22;11167;46.988;15.470;2023-08-20T09:01:02;23.50;83.10
22006;DHT22;11167;46.988;15.470;2023-08-20T09:03:03;23.50;83.20
22006;DHT22;11167;46.988;15.470;2023-08-20T09:05:05;23.50;83.20
22006;DHT22;11167;46.988;15.470;2023-08-20T09:07:06;23.50;83.20
22006;DHT22;11167;46.988;15.470;2023-08-20T09:09:08;23.60;83.30
22006;DHT22;11167;46.988;15.470;2023-08-20T09:11:10;23.60;83.40
22006;DHT22;11167;46.988;15.470;2023-08-20T09:13:11;23.60;83.30
22006;DHT22;11167;46.988;15.470;2023-08-20T09:15:12;23.60;83.30
22006;DHT22;11167;46.988;15.470;2023-08-20T09:17:13;23.70;83.40
22006;DHT22;11167;46.988;15.470;2023-08-20T09:19:14;23.70;83.50
22006;DHT22;11167;46.988;15.470;2023-08-20T09:21:15;23.70;83.50
22006;DHT22;11167;46.988;15.470;2023-08-20T09:23:17;23.70;83.50
22006;DHT22;11167;46.988;15.470;2023-08-20T09:25:18;23.70;83.50
22006;DHT22;11167;46.988;15.470;2023-08-20T09:27:19;23.70;83.50
22006;DHT22;11167;46.988;15.470;2023-08-20T09:29:20;23.80;83.50
22006;DHT22;11167;46.988;15.470;2023-08-20T09:31:22;23.80;83.60
22006;DHT22;11167;46.988;15.470;2023-08-20T09:33:24;23.80;83.50
22006;DHT22;11167;46.988;15.470;2023-08-20T09:35:28;23.80;83.60
22006;DHT22;11167;46.988;15.470;2023-08-20T09:37:29;23.80;83.50
22006;DHT22;11167;46.988;15.470;2023-08-20T09:39:30;23.90;83.50
22006;DHT22;11167;46.988;15.470;2023-08-20T09:43:58;24.00;83.70
22006;DHT22;11167;46.988;15.470;2023-08-20T09:45:57;23.90;83.70
22006;DHT22;11167;46.988;15.470;2023-08-20T09:47:59;24.00;83.80
22006;DHT22;11167;46.988;15.470;2023-08-20T09:50:03;24.00;83.80
22006;DHT22;11167;46.988;15.470;2023-08-20T09:52:10;23.90;83.70
22006;DHT22;11167;46.988;15.470;2023-08-20T09:56:22;24.00;83.80
22006;DHT22;11167;46.988;15.470;2023-08-20T09:58:25;24.10;83.70
22006;DHT22;11167;46.988;15.470;2023-08-20T10:00:27;24.10;83.80
22006;DHT22;11167;46.988;15.470;2023-08-20T10:02:29;24.10;83.80
22006;DHT22;11167;46.988;15.470;2023-08-20T10:04:37;24.20;83.80
22006;DHT22;11167;46.988;15.470;2023-08-20T10:06:38;24.20;83.80
22006;DHT22;11167;46.988;15.470;2023-08-20T10:08:41;24.20;83.80
22006;DHT22;11167;46.988;15.470;2023-08-20T10:10:42;24.20;83.70
22006;DHT22;11167;46.988;15.470;2023-08-20T10:12:43;24.20;83.80
22006;DHT22;11167;46.988;15.470;2023-08-20T10:14:45;24.30;83.80
22006;DHT22;11167;46.988;15.470;2023-08-20T10:16:46;24.30;83.80
22006;DHT22;11167;46.988;15.470;2023-08-20T10:18:47;24.30;83.80
22006;DHT22;11167;46.988;15.470;2023-08-20T10:20:55;24.40;83.90
22006;DHT22;11167;46.988;15.470;2023-08-20T10:22:53;24.40;83.90
22006;DHT22;11167;46.988;15.470;2023-08-20T10:25:00;24.40;83.90
22006;DHT22;11167;46.988;15.470;2023-08-20T10:27:10;24.40;83.90
22006;DHT22;11167;46.988;15.470;2023-08-20T10:31:36;24.50;83.90
22006;DHT22;11167;46.988;15.470;2023-08-20T10:33:36;24.50;84.00
22006;DHT22;11167;46.988;15.470;2023-08-20T10:45:07;24.60;83.80
22006;DHT22;11167;46.988;15.470;2023-08-20T10:47:17;24.70;84.70
22006;DHT22;11167;46.988;15.470;2023-08-20T10:54:04;24.70;83.80
22006;DHT22;11167;46.988;15.470;2023-08-20T10:58:23;24.90;83.90
22006;DHT22;11167;46.988;15.470;2023-08-20T11:00:26;24.80;83.80
22006;DHT22;11167;46.988;15.470;2023-08-20T11:02:40;24.90;84.00
22006;DHT22;11167;46.988;15.470;2023-08-20T11:04:42;24.90;83.90
22006;DHT22;11167;46.988;15.470;2023-08-20T11:06:44;24.90;83.90
22006;DHT22;11167;46.988;15.470;2023-08-20T11:08:48;25.00;83.80
22006;DHT22;11167;46.988;15.470;2023-08-20T11:10:53;25.00;83.90
22006;DHT22;11167;46.988;15.470;2023-08-20T11:12:58;25.00;83.80
22006;DHT22;11167;46.988;15.470;2023-08-20T11:15:01;25.00;83.70
22006;DHT22;11167;46.988;15.470;2023-08-20T11:17:04;25.10;83.70
22006;DHT22;11167;46.988;15.470;2023-08-20T11:19:08;25.10;83.70
22006;DHT22;11167;46.988;15.470;2023-08-20T11:21:09;25.10;83.70
22006;DHT22;11167;46.988;15.470;2023-08-20T11:23:10;25.20;83.90
22006;DHT22;11167;46.988;15.470;2023-08-20T11:25:12;25.20;83.90
22006;DHT22;11167;46.988;15.470;2023-08-20T11:27:14;25.20;83.90
22006;DHT22;11167;46.988;15.470;2023-08-20T11:29:18;25.20;83.80
22006;DHT22;11167;46.988;15.470;2023-08-20T11:31:26;25.30;83.90
22006;DHT22;11167;46.988;15.470;2023-08-20T11:33:28;25.30;83.90
22006;DHT22;11167;46.988;15.470;2023-08-20T11:35:30;25.40;84.00
22006;DHT22;11167;46.988;15.470;2023-08-20T11:37:32;25.40;84.00
22006;DHT22;11167;46.988;15.470;2023-08-20T11:39:37;25.40;83.90
22006;DHT22;11167;46.988;15.470;2023-08-20T11:41:39;25.50;84.00
22006;DHT22;11167;46.988;15.470;2023-08-20T11:43:41;25.50;84.00
22006;DHT22;11167;46.988;15.470;2023-08-20T11:45:46;25.50;84.10
22006;DHT22;11167;46.988;15.470;2023-08-20T11:47:47;25.50;84.00
22006;DHT22;11167;46.988;15.470;2023-08-20T11:50:01;25.60;84.00
22006;DHT22;11167;46.988;15.470;2023-08-20T11:51:52;25.60;83.90
22006;DHT22;11167;46.988;15.470;2023-08-20T11:53:53;25.60;83.90
22006;DHT22;11167;46.988;15.470;2023-08-20T11:55:54;25.70;84.80
22006;DHT22;11167;46.988;15.470;2023-08-20T11:57:55;25.70;83.90
22006;DHT22;11167;46.988;15.470;2023-08-20T12:00:05;25.80;83.90
22006;DHT22;11167;46.988;15.470;2023-08-20T12:02:14;25.80;83.40
22006;DHT22;11167;46.988;15.470;2023-08-20T12:04:15;25.70;83.80
22006;DHT22;11167;46.988;15.470;2023-08-20T12:06:19;25.80;84.00
22006;DHT22;11167;46.988;15.470;2023-08-20T12:08:20;25.90;84.00
22006;DHT22;11167;46.988;15.470;2023-08-20T12:10:21;25.90;83.90
22006;DHT22;11167;46.988;15.470;2023-08-20T12:12:22;26.00;83.90
22006;DHT22;11167;46.988;15.470;2023-08-20T12:14:23;26.00;83.90
22006;DHT22;11167;46.988;15.470;2023-08-20T12:16:24;26.00;83.90
22006;DHT22;11167;46.988;15.470;2023-08-20T12:18:28;26.10;83.90
22006;DHT22;11167;46.988;15.470;2023-08-20T12:20:31;26.10;84.70
22006;DHT22;11167;46.988;15.470;2023-08-20T12:22:32;26.10;83.90
22006;DHT22;11167;46.988;15.470;2023-08-20T12:24:38;26.20;84.00
22006;DHT22;11167;46.988;15.470;2023-08-20T12:26:40;26.20;84.00
22006;DHT22;11167;46.988;15.470;2023-08-20T12:28:48;26.20;83.90
22006;DHT22;11167;46.988;15.470;2023-08-20T12:30:53;26.20;83.90
22006;DHT22;11167;46.988;15.470;2023-08-20T12:32:58;26.30;83.90
22006;DHT22;11167;46.988;15.470;2023-08-20T12:35:01;26.40;83.90
22006;DHT22;11167;46.988;15.470;2023-08-20T12:37:03;26.40;83.90
22006;DHT22;11167;46.988;15.470;2023-08-20T12:39:08;26.40;83.90
22006;DHT22;11167;46.988;15.470;2023-08-20T12:41:09;26.40;83.90
22006;DHT22;11167;46.988;15.470;2023-08-20T12:43:11;26.50;83.90
22006;DHT22;11167;46.988;15.470;2023-08-20T12:45:19;26.50;83.90
22006;DHT22;11167;46.988;15.470;2023-08-20T12:47:29;26.60;84.00
22006;DHT22;11167;46.988;15.470;2023-08-20T12:49:30;26.60;84.00
22006;DHT22;11167;46.988;15.470;2023-08-20T12:51:32;26.60;84.00
22006;DHT22;11167;46.988;15.470;2023-08-20T12:53:33;26.60;84.00
22006;DHT22;11167;46.988;15.470;2023-08-20T12:55:34;26.70;84.00
22006;DHT22;11167;46.988;15.470;2023-08-20T12:57:35;26.70;83.80
22006;DHT22;11167;46.988;15.470;2023-08-20T12:59:39;26.80;83.90
22006;DHT22;11167;46.988;15.470;2023-08-20T13:01:44;26.80;84.00
22006;DHT22;11167;46.988;15.470;2023-08-20T13:03:45;26.80;83.80